createdAt,value
2018-12-16T00:01:36.380Z,89.43
2018-12-16T00:04:03.961Z,89.53
2018-12-16T00:06:31.460Z,89.09
2018-12-16T00:08:58.944Z,89.26
2018-12-16T00:11:26.456Z,88.74
2018-12-16T00:13:53.992Z,89.20
2018-12-16T00:16:21.496Z,89.43
2018-12-16T00:18:49.052Z,88.83
2018-12-16T00:23:50.508Z,89.41
2018-12-16T00:26:18.049Z,88.97
2018-12-16T00:28:45.616Z,88.99
2018-12-16T00:31:13.181Z,88.67
2018-12-16T00:33:40.651Z,88.70
2018-12-16T00:36:08.222Z,88.88
2018-12-16T00:38:35.724Z,88.25
2018-12-16T00:41:03.219Z,89.07
2018-12-16T00:43:30.721Z,88.36
2018-12-16T00:45:58.273Z,87.82
2018-12-16T00:48:25.737Z,87.32
2018-12-16T00:50:53.316Z,86.73
2018-12-16T00:53:20.793Z,87.10
2018-12-16T00:55:48.264Z,86.46
2018-12-16T00:58:15.770Z,87.03
2018-12-16T01:00:43.285Z,86.75
2018-12-16T01:03:10.811Z,86.52
2018-12-16T01:05:38.346Z,86.53
2018-12-16T01:08:05.858Z,86.88
2018-12-16T01:10:33.511Z,85.47
2018-12-16T01:13:00.954Z,85.15
2018-12-16T01:15:28.508Z,84.96
2018-12-16T01:17:55.976Z,84.58
2018-12-16T01:20:23.570Z,84.70
2018-12-16T01:22:51.117Z,84.64
2018-12-16T01:25:18.634Z,84.18
2018-12-16T01:27:46.154Z,84.26
2018-12-16T01:30:13.610Z,82.80
2018-12-16T01:32:41.066Z,82.17
2018-12-16T01:35:08.643Z,82.19
2018-12-16T01:37:36.228Z,82.13
2018-12-16T01:40:05.546Z,82.21
2018-12-16T01:42:33.006Z,81.88
2018-12-16T01:45:00.493Z,81.49
2018-12-16T01:47:28.100Z,81.10
2018-12-16T01:49:55.642Z,81.28
2018-12-16T01:52:23.165Z,80.58
2018-12-16T01:54:50.713Z,80.94
2018-12-16T01:57:18.198Z,79.84
2018-12-16T01:59:45.665Z,79.95
2018-12-16T02:02:13.144Z,79.78
2018-12-16T02:04:40.745Z,80.15
2018-12-16T02:07:08.355Z,79.51
2018-12-16T02:09:35.852Z,79.67
2018-12-16T02:12:03.343Z,79.10
2018-12-16T02:14:30.911Z,77.74
2018-12-16T02:16:58.521Z,78.04
2018-12-16T02:19:25.965Z,77.95
2018-12-16T02:21:53.453Z,77.68
2018-12-16T02:24:21.028Z,78.23
2018-12-16T02:26:48.589Z,77.39
2018-12-16T02:29:16.095Z,77.22
2018-12-16T02:31:43.560Z,76.72
2018-12-16T02:34:11.049Z,75.67
2018-12-16T02:36:38.533Z,75.48
2018-12-16T02:39:06.236Z,74.28
2018-12-16T02:41:33.935Z,74.26
2018-12-16T02:44:01.580Z,74.00
2018-12-16T02:46:29.091Z,74.01
2018-12-16T02:48:56.629Z,72.14
2018-12-16T02:51:24.143Z,70.93
2018-12-16T02:53:51.602Z,71.86
2018-12-16T02:56:19.112Z,71.78
2018-12-16T02:58:46.692Z,71.65
2018-12-16T03:01:14.193Z,70.82
2018-12-16T03:03:41.667Z,70.80
2018-12-16T03:06:09.117Z,70.32
2018-12-16T03:08:36.640Z,70.57
2018-12-16T03:11:04.111Z,70.75
2018-12-16T03:13:31.566Z,71.22
2018-12-16T03:15:59.085Z,70.93
2018-12-16T03:18:26.538Z,70.95
2018-12-16T03:20:54.083Z,70.20
2018-12-16T03:23:21.576Z,71.04
2018-12-16T03:25:49.066Z,70.44
2018-12-16T03:28:16.529Z,70.63
2018-12-16T03:30:44.024Z,70.68
2018-12-16T03:33:11.508Z,71.15
2018-12-16T03:35:39.043Z,72.31
2018-12-16T03:38:06.528Z,73.82
2018-12-16T03:40:34.274Z,74.30
2018-12-16T03:43:01.727Z,74.87
2018-12-16T03:45:29.236Z,75.63
2018-12-16T03:47:56.737Z,76.15
2018-12-16T03:50:24.207Z,76.56
2018-12-16T03:52:51.663Z,77.72
2018-12-16T03:55:19.126Z,77.55
2018-12-16T03:57:46.590Z,77.88
2018-12-16T04:00:14.081Z,78.12
2018-12-16T04:02:41.610Z,78.52
2018-12-16T04:05:09.091Z,79.03
2018-12-16T04:07:36.563Z,79.01
2018-12-16T04:10:04.971Z,79.17
2018-12-16T04:12:32.470Z,80.03
2018-12-16T04:14:59.922Z,80.30
2018-12-16T04:17:27.421Z,80.86
2018-12-16T04:19:54.875Z,81.40
2018-12-16T04:22:22.344Z,80.93
2018-12-16T04:24:49.808Z,80.50
2018-12-16T04:27:17.310Z,80.75
2018-12-16T04:29:44.792Z,80.75
2018-12-16T04:32:12.260Z,80.94
2018-12-16T04:34:39.707Z,81.05
2018-12-16T04:37:07.203Z,81.25
2018-12-16T04:39:34.659Z,81.46
2018-12-16T04:42:02.168Z,81.72
2018-12-16T04:44:29.702Z,82.68
2018-12-16T04:46:57.217Z,82.14
2018-12-16T04:49:24.687Z,82.19
2018-12-16T04:51:52.147Z,82.09
2018-12-16T04:54:19.587Z,81.95
2018-12-16T04:56:47.113Z,81.61
2018-12-16T04:59:14.699Z,81.96
2018-12-16T05:01:42.258Z,81.94
2018-12-16T05:04:11.303Z,82.77
2018-12-16T05:06:38.850Z,82.49
2018-12-16T05:09:06.682Z,81.52
2018-12-16T05:11:34.178Z,81.61
2018-12-16T05:14:01.695Z,81.75
2018-12-16T05:16:29.159Z,82.04
2018-12-16T05:18:56.638Z,82.31
2018-12-16T05:21:24.105Z,82.65
2018-12-16T05:23:51.559Z,82.15
2018-12-16T05:26:19.026Z,80.95
2018-12-16T05:28:46.541Z,81.37
2018-12-16T05:31:14.003Z,82.18
2018-12-16T05:33:41.477Z,81.92
2018-12-16T05:36:08.948Z,81.29
2018-12-16T05:38:36.404Z,80.72
2018-12-16T05:41:03.957Z,80.60
2018-12-16T05:43:31.468Z,81.04
2018-12-16T05:45:58.963Z,80.42
2018-12-16T05:48:26.405Z,80.83
2018-12-16T05:50:54.691Z,81.04
2018-12-16T05:53:22.242Z,81.41
2018-12-16T05:55:49.727Z,81.36
2018-12-16T05:58:17.194Z,81.06
2018-12-16T06:00:44.737Z,81.23
2018-12-16T06:03:12.197Z,81.21
2018-12-16T06:05:39.719Z,81.36
2018-12-16T06:08:07.261Z,81.47
2018-12-16T06:10:34.772Z,81.21
2018-12-16T06:13:02.246Z,81.59
2018-12-16T06:15:29.745Z,80.96
2018-12-16T06:17:57.291Z,80.80
2018-12-16T06:20:24.800Z,79.83
2018-12-16T06:22:52.269Z,78.92
2018-12-16T06:25:19.730Z,78.90
2018-12-16T06:27:48.199Z,79.27
2018-12-16T06:30:15.782Z,78.66
2018-12-16T06:32:43.293Z,78.73
2018-12-16T06:35:10.899Z,78.94
2018-12-16T06:37:38.446Z,78.98
2018-12-16T06:40:05.911Z,78.22
2018-12-16T06:42:33.444Z,77.39
2018-12-16T06:45:00.905Z,78.00
2018-12-16T06:47:28.571Z,77.94
2018-12-16T06:49:56.026Z,77.77
2018-12-16T06:52:23.619Z,78.10
2018-12-16T06:54:51.083Z,77.98
2018-12-16T06:57:18.595Z,78.19
2018-12-16T06:59:46.063Z,77.83
2018-12-16T07:02:13.549Z,77.70
2018-12-16T07:04:41.141Z,77.57
2018-12-16T07:07:08.629Z,78.43
2018-12-16T07:09:36.985Z,78.10
2018-12-16T07:12:04.454Z,76.92
2018-12-16T07:14:31.955Z,77.88
2018-12-16T07:16:59.492Z,77.57
2018-12-16T07:19:27.097Z,76.20
2018-12-16T07:21:54.580Z,76.94
2018-12-16T07:24:22.153Z,76.82
2018-12-16T07:26:49.768Z,76.62
2018-12-16T07:29:17.364Z,76.88
2018-12-16T07:31:45.098Z,76.52
2018-12-16T07:34:12.585Z,76.86
2018-12-16T07:36:40.149Z,76.77
2018-12-16T07:39:07.647Z,76.69
2018-12-16T07:41:35.295Z,75.83
2018-12-16T07:44:02.886Z,74.92
2018-12-16T07:46:30.546Z,75.17
2018-12-16T07:48:58.054Z,75.98
2018-12-16T07:51:25.600Z,75.30
2018-12-16T07:53:53.066Z,75.40
2018-12-16T07:56:20.647Z,75.56
2018-12-16T07:58:48.123Z,74.61
2018-12-16T08:01:15.641Z,73.67
2018-12-16T08:03:43.137Z,74.16
2018-12-16T08:06:10.665Z,73.54
2018-12-16T08:08:38.159Z,73.47
2018-12-16T08:11:05.702Z,73.23
2018-12-16T08:13:33.224Z,72.99
2018-12-16T08:16:00.699Z,72.42
2018-12-16T08:18:28.200Z,72.63
2018-12-16T08:20:55.707Z,72.37
2018-12-16T08:23:23.230Z,72.35
2018-12-16T08:25:50.700Z,73.21
2018-12-16T08:28:18.176Z,72.88
2018-12-16T08:30:45.716Z,71.63
2018-12-16T08:33:13.265Z,71.79
2018-12-16T08:35:40.800Z,71.59
2018-12-16T08:38:08.282Z,70.52
2018-12-16T08:40:35.837Z,70.88
2018-12-16T08:43:03.324Z,70.88
2018-12-16T08:45:30.900Z,71.30
2018-12-16T08:47:58.452Z,71.55
2018-12-16T08:50:26.016Z,71.80
2018-12-16T08:52:53.548Z,71.50
2018-12-16T08:55:21.045Z,71.33
2018-12-16T08:57:49.099Z,70.10
2018-12-16T09:00:16.581Z,69.85
2018-12-16T09:02:44.144Z,69.68
2018-12-16T09:05:11.653Z,69.60
2018-12-16T09:07:39.179Z,70.79
2018-12-16T09:10:08.859Z,70.37
2018-12-16T09:12:36.454Z,70.99
2018-12-16T09:15:05.144Z,70.60
2018-12-16T09:17:32.678Z,71.33
2018-12-16T09:20:00.158Z,71.13
2018-12-16T09:22:27.675Z,70.88
2018-12-16T09:24:55.141Z,71.02
2018-12-16T09:27:22.626Z,69.65
2018-12-16T09:29:50.119Z,70.03
2018-12-16T09:32:17.615Z,69.68
2018-12-16T09:34:45.070Z,69.30
2018-12-16T09:37:12.654Z,69.25
2018-12-16T09:39:40.153Z,69.17
2018-12-16T09:42:07.625Z,69.05
2018-12-16T09:44:35.820Z,69.65
2018-12-16T09:47:03.426Z,68.96
2018-12-16T09:49:30.991Z,67.81
2018-12-16T09:51:58.478Z,67.71
2018-12-16T09:54:25.957Z,68.34
2018-12-16T09:56:53.545Z,68.82
2018-12-16T09:59:21.015Z,68.74
2018-12-16T10:01:48.503Z,69.12
2018-12-16T10:04:16.030Z,69.27
2018-12-16T10:06:43.556Z,68.19
2018-12-16T10:09:11.173Z,68.18
2018-12-16T10:11:38.772Z,67.35
2018-12-16T10:14:06.239Z,67.07
2018-12-16T10:16:33.723Z,67.07
2018-12-16T10:19:01.209Z,67.41
2018-12-16T10:21:28.712Z,68.82
2018-12-16T10:23:56.199Z,68.47
2018-12-16T10:26:23.650Z,67.39
2018-12-16T10:28:51.170Z,66.62
2018-12-16T10:31:18.648Z,67.60
2018-12-16T10:33:46.107Z,66.92
2018-12-16T10:36:13.670Z,67.14
2018-12-16T10:38:41.164Z,65.63
2018-12-16T10:41:08.697Z,66.37
2018-12-16T10:43:36.321Z,66.10
2018-12-16T10:46:03.842Z,66.49
2018-12-16T10:48:31.358Z,66.81
2018-12-16T10:50:58.804Z,66.73
2018-12-16T10:53:26.328Z,66.40
2018-12-16T10:55:53.783Z,65.71
2018-12-16T10:58:21.268Z,66.62
2018-12-16T11:03:54.613Z,64.84
2018-12-16T11:06:22.078Z,65.97
2018-12-16T11:08:49.707Z,65.52
2018-12-16T11:11:17.235Z,65.77
2018-12-16T11:13:44.762Z,65.80
2018-12-16T11:16:12.272Z,66.08
2018-12-16T11:18:39.750Z,64.98
2018-12-16T11:21:07.272Z,65.12
2018-12-16T11:23:34.788Z,64.86
2018-12-16T11:26:02.271Z,65.44
2018-12-16T11:28:29.890Z,65.33
2018-12-16T11:30:57.357Z,64.50
2018-12-16T11:33:24.865Z,64.27
2018-12-16T11:35:52.372Z,64.68
2018-12-16T11:38:19.895Z,64.53
2018-12-16T11:40:47.411Z,64.64
2018-12-16T11:43:15.005Z,64.17
2018-12-16T11:45:42.469Z,64.15
2018-12-16T11:48:09.947Z,64.11
2018-12-16T11:50:37.463Z,63.62
2018-12-16T11:53:04.959Z,63.53
2018-12-16T11:55:32.544Z,63.86
2018-12-16T11:58:00.031Z,63.84
2018-12-16T12:00:27.480Z,63.84
2018-12-16T12:02:55.000Z,63.75
2018-12-16T12:05:22.475Z,63.54
2018-12-16T12:07:50.008Z,63.91
2018-12-16T12:10:17.540Z,64.19
2018-12-16T12:12:45.013Z,63.99
2018-12-16T12:15:12.600Z,63.64
2018-12-16T12:17:40.166Z,64.03
2018-12-16T12:20:07.708Z,63.85
2018-12-16T12:22:35.181Z,64.24
2018-12-16T12:25:02.696Z,63.77
2018-12-16T12:27:30.194Z,63.96
2018-12-16T12:29:57.683Z,63.75
2018-12-16T12:32:25.182Z,63.23
2018-12-16T12:34:52.655Z,63.65
2018-12-16T12:37:20.260Z,63.07
2018-12-16T12:39:47.838Z,63.42
2018-12-16T12:42:15.326Z,63.94
2018-12-16T12:44:43.499Z,64.44
2018-12-16T12:47:11.052Z,64.09
2018-12-16T12:49:44.801Z,63.98
2018-12-16T12:52:08.232Z,64.18
2018-12-16T12:54:35.713Z,63.24
2018-12-16T12:57:03.256Z,63.66
2018-12-16T12:59:30.748Z,63.71
2018-12-16T13:01:58.243Z,63.92
2018-12-16T13:04:26.093Z,63.85
2018-12-16T13:06:53.730Z,63.59
2018-12-16T13:09:21.356Z,64.61
2018-12-16T13:11:48.959Z,64.36
2018-12-16T13:14:16.473Z,63.93
2018-12-16T13:16:43.947Z,64.02
2018-12-16T13:19:11.418Z,63.79
2018-12-16T13:21:39.161Z,63.71
2018-12-16T13:24:06.641Z,63.67
2018-12-16T13:26:34.357Z,64.17
2018-12-16T13:31:35.888Z,63.80
2018-12-16T13:34:03.423Z,64.02
2018-12-16T13:36:30.931Z,64.30
2018-12-16T13:41:33.943Z,64.47
2018-12-16T13:44:01.513Z,65.65
2018-12-16T13:46:29.118Z,66.07
2018-12-16T13:48:56.609Z,65.49
2018-12-16T13:51:24.115Z,65.28
2018-12-16T13:53:51.577Z,64.81
2018-12-16T13:56:19.152Z,64.47
2018-12-16T13:58:46.701Z,64.32
2018-12-16T14:01:14.305Z,64.75
2018-12-16T14:03:41.765Z,64.07
2018-12-16T14:06:09.271Z,64.67
2018-12-16T14:08:36.751Z,64.40
2018-12-16T14:11:04.257Z,65.27
2018-12-16T14:13:31.728Z,64.95
2018-12-16T14:15:59.256Z,65.30
2018-12-16T14:18:26.848Z,65.25
2018-12-16T14:20:54.323Z,64.90
2018-12-16T14:23:21.801Z,65.45
2018-12-16T14:25:49.309Z,66.03
2018-12-16T14:28:16.803Z,65.63
2018-12-16T14:30:44.259Z,65.60
2018-12-16T14:33:11.761Z,65.95
2018-12-16T14:35:39.260Z,65.99
2018-12-16T14:38:07.064Z,66.17
2018-12-16T14:40:34.631Z,66.47
2018-12-16T14:43:02.124Z,66.80
2018-12-16T14:45:29.626Z,66.87
2018-12-16T14:47:57.158Z,66.58
2018-12-16T14:50:24.649Z,66.60
2018-12-16T14:52:52.130Z,66.72
2018-12-16T14:55:19.638Z,68.06
2018-12-16T14:57:47.125Z,67.27
2018-12-16T15:00:14.753Z,67.89
2018-12-16T15:02:42.242Z,68.06
2018-12-16T15:05:09.757Z,68.28
2018-12-16T15:07:37.267Z,68.02
2018-12-16T15:10:06.753Z,68.47
2018-12-16T15:12:34.241Z,68.16
2018-12-16T15:15:01.948Z,68.78
2018-12-16T15:17:29.447Z,69.12
2018-12-16T15:19:56.932Z,68.93
2018-12-16T15:22:24.427Z,69.19
2018-12-16T15:24:51.905Z,69.11
2018-12-16T15:27:19.490Z,69.32
2018-12-16T15:29:47.051Z,69.86
2018-12-16T15:32:14.539Z,70.45
2018-12-16T15:34:42.066Z,70.01
2018-12-16T15:37:09.641Z,70.17
2018-12-16T15:39:37.106Z,70.53
2018-12-16T15:42:04.615Z,70.91
2018-12-16T15:44:32.232Z,70.77
2018-12-16T15:46:59.810Z,71.07
2018-12-16T15:49:27.296Z,70.98
2018-12-16T15:51:54.806Z,71.47
2018-12-16T15:54:22.293Z,72.02
2018-12-16T15:56:49.850Z,71.88
2018-12-16T15:59:17.356Z,71.92
2018-12-16T16:01:44.862Z,72.23
2018-12-16T16:04:12.392Z,72.97
2018-12-16T16:06:39.902Z,73.20
2018-12-16T16:09:07.530Z,73.47
2018-12-16T16:11:35.146Z,72.61
2018-12-16T16:14:02.706Z,73.19
2018-12-16T16:16:30.267Z,73.84
2018-12-16T16:18:57.894Z,73.57
2018-12-16T16:21:25.436Z,73.79
2018-12-16T16:23:52.966Z,73.61
2018-12-16T16:26:20.644Z,74.07
2018-12-16T16:28:48.307Z,74.07
2018-12-16T16:31:15.847Z,74.43
2018-12-16T16:33:43.435Z,73.86
2018-12-16T16:36:10.980Z,74.39
2018-12-16T16:38:38.476Z,74.36
2018-12-16T16:41:06.332Z,74.62
2018-12-16T16:43:33.862Z,74.23
2018-12-16T16:46:01.367Z,74.46
2018-12-16T16:48:28.927Z,74.35
2018-12-16T16:50:56.437Z,75.18
2018-12-16T16:53:24.059Z,75.08
2018-12-16T16:55:51.572Z,74.38
2018-12-16T16:58:19.096Z,74.65
2018-12-16T17:00:46.602Z,75.13
2018-12-16T17:03:14.217Z,74.95
2018-12-16T17:05:41.736Z,74.20
2018-12-16T17:08:10.200Z,75.11
2018-12-16T17:10:37.713Z,75.13
2018-12-16T17:13:05.291Z,74.90
2018-12-16T17:15:32.857Z,75.45
2018-12-16T17:18:00.354Z,75.09
2018-12-16T17:20:27.887Z,75.25
2018-12-16T17:22:55.389Z,75.14
2018-12-16T17:25:22.948Z,75.04
2018-12-16T17:27:50.483Z,74.01
2018-12-16T17:30:18.076Z,74.63
2018-12-16T17:32:45.652Z,75.00
2018-12-16T17:35:13.257Z,74.13
2018-12-16T17:37:40.831Z,74.52
2018-12-16T17:40:08.599Z,73.89
2018-12-16T17:42:36.140Z,74.08
2018-12-16T17:45:03.989Z,73.75
2018-12-16T17:47:31.491Z,74.13
2018-12-16T17:49:59.075Z,74.47
2018-12-16T17:52:26.645Z,73.97
2018-12-16T17:54:54.136Z,73.68
2018-12-16T17:57:21.683Z,74.10
2018-12-16T17:59:49.226Z,74.28
2018-12-16T18:02:16.735Z,73.96
2018-12-16T18:04:44.244Z,74.11
2018-12-16T18:07:12.476Z,74.41
2018-12-16T18:09:40.013Z,74.26
2018-12-16T18:12:07.565Z,73.95
2018-12-16T18:14:35.045Z,73.40
2018-12-16T18:17:03.588Z,74.21
2018-12-16T18:19:31.119Z,73.84
2018-12-16T18:21:58.647Z,74.35
2018-12-16T18:24:26.236Z,74.12
2018-12-16T18:26:53.779Z,74.18
2018-12-16T18:29:21.321Z,74.37
2018-12-16T18:31:48.888Z,74.55
2018-12-16T18:34:17.190Z,73.98
2018-12-16T18:36:45.472Z,73.75
2018-12-16T18:39:13.024Z,74.40
2018-12-16T18:41:40.862Z,73.75
2018-12-16T18:44:08.404Z,73.37
2018-12-16T18:46:35.902Z,73.47
2018-12-16T18:49:03.467Z,73.10
2018-12-16T18:51:30.968Z,73.71
2018-12-16T18:53:58.526Z,74.19
2018-12-16T18:56:26.095Z,73.97
2018-12-16T18:58:53.575Z,74.32
2018-12-16T19:01:21.098Z,73.80
2018-12-16T19:06:23.854Z,74.22
2018-12-16T19:08:51.368Z,74.22
2018-12-16T19:11:18.940Z,74.62
2018-12-16T19:13:46.515Z,74.43
2018-12-16T19:16:14.069Z,74.17
2018-12-16T19:18:41.808Z,73.87
2018-12-16T19:21:09.356Z,73.83
2018-12-16T19:23:36.892Z,74.09
2018-12-16T19:26:04.558Z,73.94
2018-12-16T19:28:32.960Z,74.03
2018-12-16T19:31:00.516Z,73.96
2018-12-16T19:33:28.005Z,74.00
2018-12-16T19:35:55.834Z,73.07
2018-12-16T19:38:23.333Z,73.22
2018-12-16T19:40:50.865Z,73.23
2018-12-16T19:43:18.426Z,73.92
2018-12-16T19:45:46.014Z,74.77
2018-12-16T19:48:13.527Z,74.25
2018-12-16T19:50:41.150Z,73.49
2018-12-16T19:53:08.661Z,73.68
2018-12-16T19:55:36.501Z,73.45
2018-12-16T19:58:04.327Z,73.83
2018-12-16T20:00:31.905Z,73.99
2018-12-16T20:02:59.454Z,73.94
2018-12-16T20:05:27.040Z,74.00
2018-12-16T20:07:54.554Z,74.60
2018-12-16T20:10:22.294Z,74.41
2018-12-16T20:12:49.816Z,74.37
2018-12-16T20:15:17.370Z,74.97
2018-12-16T20:17:44.899Z,74.67
2018-12-16T20:20:12.518Z,75.07
2018-12-16T20:22:40.059Z,76.70
2018-12-16T20:25:07.639Z,77.78
2018-12-16T20:27:35.947Z,79.65
2018-12-16T20:30:05.538Z,79.62
2018-12-16T20:32:33.029Z,80.01
2018-12-16T20:35:00.985Z,80.67
2018-12-16T20:37:28.478Z,80.79
2018-12-16T20:42:32.112Z,82.49
2018-12-16T20:44:59.698Z,83.31
2018-12-16T20:47:28.016Z,83.89
2018-12-16T20:49:56.316Z,83.65
2018-12-16T20:52:24.737Z,83.85
2018-12-16T20:54:52.341Z,85.08
2018-12-16T20:59:55.142Z,83.74
2018-12-16T21:02:22.662Z,84.46
2018-12-16T21:04:50.216Z,84.17
2018-12-16T21:07:17.754Z,84.72
2018-12-16T21:09:45.263Z,84.39
2018-12-16T21:15:27.960Z,85.18
2018-12-16T21:18:01.037Z,85.46
2018-12-16T21:20:28.573Z,84.40
2018-12-16T21:22:57.234Z,84.44
2018-12-16T21:25:26.280Z,84.84
2018-12-16T21:27:53.790Z,85.05
2018-12-16T21:30:21.323Z,84.62
2018-12-16T21:32:49.277Z,85.20
2018-12-16T21:35:16.930Z,85.07
2018-12-16T21:37:44.945Z,85.78
2018-12-16T21:40:13.293Z,86.32
2018-12-16T21:42:40.853Z,86.39
2018-12-16T21:45:08.414Z,86.83
2018-12-16T21:47:35.987Z,87.87
2018-12-16T21:50:03.751Z,87.52
2018-12-16T21:52:31.376Z,88.19
2018-12-16T21:54:58.870Z,86.72
2018-12-16T21:57:32.854Z,88.34
2018-12-16T21:59:56.116Z,88.69
2018-12-16T22:02:24.451Z,88.72
2018-12-16T22:04:51.993Z,88.53
2018-12-16T22:07:19.517Z,88.26
2018-12-16T22:09:47.057Z,88.82
2018-12-16T22:12:14.580Z,88.49
2018-12-16T22:14:42.900Z,89.58
2018-12-16T22:17:10.547Z,88.45
2018-12-16T22:19:38.114Z,89.45
2018-12-16T22:22:05.663Z,89.16
2018-12-16T22:24:33.211Z,89.33
2018-12-16T22:27:00.722Z,89.44
2018-12-16T22:29:28.209Z,89.82
2018-12-16T22:31:56.025Z,90.61
2018-12-16T22:34:23.593Z,91.08
2018-12-16T22:36:51.114Z,90.32
2018-12-16T22:39:18.616Z,90.46
2018-12-16T22:41:46.109Z,90.48
2018-12-16T22:44:13.579Z,89.86
2018-12-16T22:46:41.163Z,89.87
2018-12-16T22:49:08.640Z,89.88
2018-12-16T22:51:36.109Z,90.49
2018-12-16T22:54:03.626Z,90.12
2018-12-16T22:56:31.119Z,90.88
2018-12-16T22:58:58.600Z,91.65
2018-12-16T23:01:26.345Z,92.11
2018-12-16T23:03:53.799Z,91.69
2018-12-16T23:06:21.298Z,90.41
2018-12-16T23:08:48.769Z,89.88
2018-12-16T23:11:16.292Z,89.80
2018-12-16T23:13:43.784Z,88.88
2018-12-16T23:16:11.254Z,89.61
2018-12-16T23:18:39.121Z,88.65
2018-12-16T23:21:06.667Z,89.18
2018-12-16T23:23:34.162Z,89.46
2018-12-16T23:26:01.657Z,89.31
2018-12-16T23:28:29.355Z,88.31
2018-12-16T23:30:56.908Z,89.19
2018-12-16T23:33:24.371Z,90.40
2018-12-16T23:35:51.869Z,89.89
2018-12-16T23:38:19.335Z,89.81
2018-12-16T23:40:46.827Z,90.74
2018-12-16T23:43:14.303Z,91.20
2018-12-16T23:45:41.796Z,91.76
2018-12-16T23:48:09.268Z,90.93
2018-12-16T23:50:36.794Z,90.63
2018-12-16T23:53:04.496Z,91.35
2018-12-16T23:55:31.994Z,91.58
2018-12-16T23:58:01.194Z,91.27
